Time;durP1;ratioP1;P1;durP2;ratioP2;P2;SDS_P1;SDS_P2;PMS_P1;PMS_P2;Temp;Humidity;BMP_temperature;BMP_pressure;BME280_temperature;BME280_humidity;BME280_pressure;Samples;Min_cycle;Max_cycle;Signal;HPM_P1;HPM_P2
2021/06/24 00:01:13;;;;;;;;;;;20.70;59.60;;;;;;485787;245;1507;-44
2021/06/24 00:03:14;;;;;;;;;;;20.70;59.60;;;;;;485738;245;1180;-44
2021/06/24 00:05:15;;;;;;;;;;;20.60;59.60;;;;;;485966;245;1178;-44
2021/06/24 00:07:17;;;;;;;;;;;20.60;59.60;;;;;;485883;245;2182;-44
2021/06/24 00:09:18;;;;;;;;;;;20.70;59.60;;;;;;485860;245;1050;-44
2021/06/24 00:11:19;;;;;;;;;;;20.60;59.60;;;;;;485656;242;1202;-44
2021/06/24 00:13:21;;;;;;;;;;;20.60;59.60;;;;;;485765;245;1043;-44
2021/06/24 00:15:22;;;;;;;;;;;20.60;59.60;;;;;;486034;245;1091;-44
2021/06/24 00:17:23;;;;;;;;;;;20.60;59.60;;;;;;485740;245;1193;-44
2021/06/24 00:19:25;;;;;;;;;;;20.60;59.60;;;;;;485720;245;1275;-44
2021/06/24 00:21:26;;;;;;;;;;;20.60;59.60;;;;;;485597;245;1321;-44
2021/06/24 00:23:27;;;;;;;;;;;20.70;59.60;;;;;;485799;245;1445;-44
2021/06/24 00:25:29;;;;;;;;;;;20.70;59.60;;;;;;485824;245;1146;-44
2021/06/24 00:27:30;;;;;;;;;;;20.70;59.60;;;;;;485671;245;2184;-44
2021/06/24 00:29:32;;;;;;;;;;;20.70;59.60;;;;;;485790;245;1072;-44
2021/06/24 00:31:33;;;;;;;;;;;20.60;59.60;;;;;;485838;245;1225;-44
2021/06/24 00:33:34;;;;;;;;;;;20.60;59.60;;;;;;486033;245;1043;-44
2021/06/24 00:35:36;;;;;;;;;;;20.60;59.60;;;;;;485952;245;1149;-44
2021/06/24 00:37:38;;;;;;;;;;;20.60;59.60;;;;;;485864;245;1499;-44
2021/06/24 00:39:38;;;;;;;;;;;20.70;59.60;;;;;;485998;245;2784;-44
2021/06/24 00:41:40;;;;;;;;;;;20.70;59.60;;;;;;485685;245;1141;-44
2021/06/24 00:43:41;;;;;;;;;;;20.70;59.60;;;;;;485701;245;1223;-44
2021/06/24 00:45:42;;;;;;;;;;;20.60;59.60;;;;;;486006;245;1078;-44
2021/06/24 00:47:44;;;;;;;;;;;20.60;59.60;;;;;;485982;245;2132;-44
2021/06/24 00:49:45;;;;;;;;;;;20.60;59.60;;;;;;485711;245;1066;-44
2021/06/24 00:51:46;;;;;;;;;;;20.60;59.60;;;;;;485618;245;1139;-44
2021/06/24 00:53:48;;;;;;;;;;;20.70;59.60;;;;;;485801;245;1165;-44
2021/06/24 00:55:49;;;;;;;;;;;20.70;59.60;;;;;;485690;245;1362;-44
2021/06/24 00:57:51;;;;;;;;;;;20.70;59.60;;;;;;485954;245;1185;-44
2021/06/24 00:59:52;;;;;;;;;;;20.70;59.60;;;;;;485758;245;1067;-44
2021/06/24 01:01:53;;;;;;;;;;;20.70;59.60;;;;;;485686;245;1263;-44
2021/06/24 01:03:55;;;;;;;;;;;20.60;59.60;;;;;;485714;245;1056;-44
2021/06/24 01:05:56;;;;;;;;;;;20.60;59.60;;;;;;485831;245;1670;-44
2021/06/24 01:07:57;;;;;;;;;;;20.60;59.60;;;;;;485733;245;2202;-44
2021/06/24 01:09:58;;;;;;;;;;;20.60;59.60;;;;;;485820;245;1099;-44
2021/06/24 01:12:00;;;;;;;;;;;20.70;59.60;;;;;;485681;242;1358;-44
2021/06/24 01:14:01;;;;;;;;;;;20.60;59.60;;;;;;485720;245;1027;-44
2021/06/24 01:16:02;;;;;;;;;;;20.60;59.60;;;;;;486153;245;1424;-44
2021/06/24 01:18:04;;;;;;;;;;;20.60;59.60;;;;;;485784;245;1075;-44
2021/06/24 01:20:05;;;;;;;;;;;20.60;59.70;;;;;;485693;245;1077;-44
2021/06/24 01:22:06;;;;;;;;;;;20.60;59.60;;;;;;485951;245;1221;-44
2021/06/24 01:24:08;;;;;;;;;;;20.60;59.60;;;;;;485808;245;1114;-44
2021/06/24 01:26:09;;;;;;;;;;;20.60;59.60;;;;;;485992;245;1182;-44
2021/06/24 01:28:10;;;;;;;;;;;20.70;59.70;;;;;;486077;245;2191;-44
2021/06/24 01:30:12;;;;;;;;;;;20.70;59.60;;;;;;485752;245;1051;-44
2021/06/24 01:32:13;;;;;;;;;;;20.60;59.60;;;;;;485853;245;1174;-44
2021/06/24 01:34:14;;;;;;;;;;;20.60;59.60;;;;;;485703;245;1278;-44
2021/06/24 01:36:16;;;;;;;;;;;20.60;59.60;;;;;;485718;245;1443;-44
2021/06/24 01:38:17;;;;;;;;;;;20.60;59.70;;;;;;485942;245;1170;-44
2021/06/24 01:40:19;;;;;;;;;;;20.60;59.60;;;;;;485639;245;1103;-44
2021/06/24 01:42:20;;;;;;;;;;;20.60;59.70;;;;;;485580;245;1546;-44
2021/06/24 01:44:21;;;;;;;;;;;20.60;59.60;;;;;;485783;245;1068;-44
2021/06/24 01:46:22;;;;;;;;;;;20.70;59.70;;;;;;485648;245;1159;-44
2021/06/24 01:48:24;;;;;;;;;;;20.60;59.60;;;;;;485828;245;2186;-44
2021/06/24 01:50:25;;;;;;;;;;;20.60;59.60;;;;;;486219;245;1072;-44
2021/06/24 01:52:26;;;;;;;;;;;20.60;59.60;;;;;;485915;245;1200;-44
2021/06/24 01:54:28;;;;;;;;;;;20.60;59.60;;;;;;485776;245;1189;-44
2021/06/24 01:56:29;;;;;;;;;;;20.70;59.60;;;;;;486163;245;1165;-44
2021/06/24 01:58:30;;;;;;;;;;;20.70;59.70;;;;;;486102;245;1079;-44
2021/06/24 02:00:32;;;;;;;;;;;20.60;59.70;;;;;;485667;245;1085;-44
2021/06/24 02:02:33;;;;;;;;;;;20.60;59.60;;;;;;485686;245;1250;-44
2021/06/24 02:04:34;;;;;;;;;;;20.60;59.70;;;;;;485765;245;1066;-44
2021/06/24 02:06:36;;;;;;;;;;;20.60;59.70;;;;;;485981;245;1142;-44
2021/06/24 02:08:37;;;;;;;;;;;20.60;59.70;;;;;;485880;245;2140;-44
2021/06/24 02:10:38;;;;;;;;;;;20.60;59.70;;;;;;486099;245;1060;-44
2021/06/24 02:12:39;;;;;;;;;;;20.60;59.60;;;;;;485545;245;1119;-44
2021/06/24 02:14:41;;;;;;;;;;;20.60;59.70;;;;;;485778;245;1125;-44
2021/06/24 02:16:42;;;;;;;;;;;20.60;59.70;;;;;;485582;245;1314;-44
2021/06/24 02:18:43;;;;;;;;;;;20.60;59.70;;;;;;485703;245;1088;-44
2021/06/24 02:20:45;;;;;;;;;;;20.60;59.70;;;;;;485756;245;1079;-44
2021/06/24 02:22:46;;;;;;;;;;;20.60;59.70;;;;;;485645;245;1168;-44
2021/06/24 02:24:47;;;;;;;;;;;20.70;59.70;;;;;;485787;245;1198;-44
2021/06/24 02:26:49;;;;;;;;;;;20.60;59.60;;;;;;485986;245;1386;-44
2021/06/24 02:28:50;;;;;;;;;;;20.60;59.60;;;;;;485921;245;2214;-44
2021/06/24 02:30:51;;;;;;;;;;;20.60;59.60;;;;;;486205;245;1064;-44
2021/06/24 02:32:53;;;;;;;;;;;20.60;59.60;;;;;;485665;245;1131;-44
2021/06/24 02:34:54;;;;;;;;;;;20.60;59.60;;;;;;485743;245;1217;-44
2021/06/24 02:36:56;;;;;;;;;;;20.60;59.70;;;;;;485750;245;1379;-44
2021/06/24 02:38:57;;;;;;;;;;;20.60;59.70;;;;;;485586;245;2197;-44
2021/06/24 02:40:58;;;;;;;;;;;20.60;59.70;;;;;;485649;245;1131;-44
2021/06/24 02:42:59;;;;;;;;;;;20.60;59.70;;;;;;485623;245;1107;-44
2021/06/24 02:45:01;;;;;;;;;;;20.60;59.70;;;;;;485681;245;1069;-44
2021/06/24 02:47:02;;;;;;;;;;;20.60;59.70;;;;;;485931;245;1331;-44
2021/06/24 02:49:03;;;;;;;;;;;20.60;59.70;;;;;;485746;245;2195;-44
2021/06/24 02:51:05;;;;;;;;;;;20.60;59.70;;;;;;485705;245;1094;-44
2021/06/24 02:53:06;;;;;;;;;;;20.60;59.70;;;;;;486172;245;1094;-44
2021/06/24 02:55:07;;;;;;;;;;;20.60;59.70;;;;;;485801;245;1265;-44
2021/06/24 02:57:09;;;;;;;;;;;20.60;59.70;;;;;;486129;245;1158;-44
2021/06/24 02:59:10;;;;;;;;;;;20.60;59.70;;;;;;486088;245;1040;-44
2021/06/24 03:01:11;;;;;;;;;;;20.60;59.70;;;;;;485693;245;1325;-44
2021/06/24 03:03:13;;;;;;;;;;;20.60;59.70;;;;;;486129;245;1055;-44
2021/06/24 03:05:15;;;;;;;;;;;20.60;59.70;;;;;;485845;245;979;-44
2021/06/24 03:07:15;;;;;;;;;;;20.60;59.70;;;;;;485588;245;2364;-44
2021/06/24 03:09:17;;;;;;;;;;;20.60;59.70;;;;;;486019;245;2199;-44
2021/06/24 03:11:18;;;;;;;;;;;20.60;59.70;;;;;;486052;245;1142;-44
2021/06/24 03:13:19;;;;;;;;;;;20.60;59.70;;;;;;485757;245;1089;-44
2021/06/24 03:15:21;;;;;;;;;;;20.60;59.70;;;;;;486158;245;1023;-44
2021/06/24 03:17:22;;;;;;;;;;;20.60;59.70;;;;;;486152;245;1202;-44
2021/06/24 03:19:23;;;;;;;;;;;20.60;59.70;;;;;;485946;245;1042;-44
2021/06/24 03:21:25;;;;;;;;;;;20.60;59.70;;;;;;486039;245;1232;-44
2021/06/24 03:23:26;;;;;;;;;;;20.60;59.60;;;;;;485705;245;1146;-44
2021/06/24 03:25:27;;;;;;;;;;;20.60;59.60;;;;;;485707;245;1179;-44
2021/06/24 03:27:29;;;;;;;;;;;20.60;59.60;;;;;;485769;245;1149;-44
2021/06/24 03:29:30;;;;;;;;;;;20.70;59.60;;;;;;486010;245;2175;-44
2021/06/24 03:31:31;;;;;;;;;;;20.60;59.70;;;;;;486142;245;1154;-44
2021/06/24 03:33:33;;;;;;;;;;;20.60;59.70;;;;;;486157;245;1303;-44
2021/06/24 03:35:34;;;;;;;;;;;20.60;59.70;;;;;;486158;245;1069;-44
2021/06/24 03:37:36;;;;;;;;;;;20.60;59.70;;;;;;485960;245;1162;-44
2021/06/24 03:39:37;;;;;;;;;;;20.60;59.70;;;;;;485991;245;1096;-44
2021/06/24 03:41:38;;;;;;;;;;;20.60;59.70;;;;;;485694;245;1240;-44
2021/06/24 03:43:39;;;;;;;;;;;20.60;59.70;;;;;;485693;245;1074;-44
2021/06/24 03:45:41;;;;;;;;;;;20.60;59.70;;;;;;485791;245;1092;-44
2021/06/24 03:47:42;;;;;;;;;;;20.60;59.70;;;;;;486041;245;1141;-44
2021/06/24 03:49:43;;;;;;;;;;;20.60;59.60;;;;;;486105;245;2198;-44
2021/06/24 03:51:45;;;;;;;;;;;20.60;59.60;;;;;;485659;245;1370;-44
2021/06/24 03:53:46;;;;;;;;;;;20.60;59.70;;;;;;486082;245;1067;-44
2021/06/24 03:55:47;;;;;;;;;;;20.60;59.60;;;;;;485788;245;1367;-44
2021/06/24 03:57:49;;;;;;;;;;;20.60;59.70;;;;;;486175;245;1105;-44
2021/06/24 03:59:50;;;;;;;;;;;20.60;59.70;;;;;;485841;245;1216;-44
2021/06/24 04:01:51;;;;;;;;;;;20.60;59.70;;;;;;485948;245;1169;-44
2021/06/24 04:03:52;;;;;;;;;;;20.60;59.80;;;;;;485737;245;1113;-44
2021/06/24 04:05:54;;;;;;;;;;;20.60;59.80;;;;;;485683;245;1080;-44
2021/06/24 04:07:55;;;;;;;;;;;20.60;59.70;;;;;;485651;245;1327;-44
2021/06/24 04:09:56;;;;;;;;;;;20.60;59.70;;;;;;485987;245;2136;-44
2021/06/24 04:11:58;;;;;;;;;;;20.60;59.70;;;;;;485986;245;1426;-44
2021/06/24 04:13:59;;;;;;;;;;;20.60;59.70;;;;;;485766;245;1297;-44
2021/06/24 04:16:01;;;;;;;;;;;20.60;59.70;;;;;;485728;245;1213;-44
2021/06/24 04:18:03;;;;;;;;;;;20.60;59.70;;;;;;485896;245;1136;-44
2021/06/24 04:20:04;;;;;;;;;;;20.60;59.70;;;;;;485651;245;1045;-44
2021/06/24 04:22:05;;;;;;;;;;;20.60;59.70;;;;;;485735;245;1357;-44
2021/06/24 04:24:07;;;;;;;;;;;20.60;59.70;;;;;;485934;245;1049;-44
2021/06/24 04:26:08;;;;;;;;;;;20.60;59.70;;;;;;485710;242;1393;-44
2021/06/24 04:28:09;;;;;;;;;;;20.60;59.70;;;;;;485732;245;1177;-44
2021/06/24 04:30:11;;;;;;;;;;;20.60;59.70;;;;;;485815;245;2191;-44
2021/06/24 04:32:12;;;;;;;;;;;20.60;59.70;;;;;;485775;245;1260;-44
2021/06/24 04:34:13;;;;;;;;;;;20.60;59.70;;;;;;486166;245;1063;-44
2021/06/24 04:36:15;;;;;;;;;;;20.60;59.70;;;;;;485972;245;1357;-44
2021/06/24 04:38:16;;;;;;;;;;;20.60;59.70;;;;;;485629;245;1552;-44
2021/06/24 04:40:17;;;;;;;;;;;20.60;59.60;;;;;;485940;245;1119;-44
2021/06/24 04:42:19;;;;;;;;;;;20.60;59.60;;;;;;485711;245;1244;-44
2021/06/24 04:44:20;;;;;;;;;;;20.60;59.60;;;;;;485644;245;1042;-44
2021/06/24 04:46:21;;;;;;;;;;;20.60;59.60;;;;;;485831;245;1178;-44
2021/06/24 04:48:23;;;;;;;;;;;20.60;59.60;;;;;;485682;245;2148;-44
2021/06/24 04:50:24;;;;;;;;;;;20.60;59.70;;;;;;485609;245;1180;-44
2021/06/24 04:52:25;;;;;;;;;;;20.60;59.60;;;;;;485688;245;1556;-44
2021/06/24 04:54:27;;;;;;;;;;;20.60;59.70;;;;;;485794;245;1240;-44
2021/06/24 04:56:28;;;;;;;;;;;20.60;59.60;;;;;;485642;245;1254;-44
2021/06/24 04:58:29;;;;;;;;;;;20.60;59.60;;;;;;485659;245;1068;-44
2021/06/24 05:00:31;;;;;;;;;;;20.60;59.60;;;;;;485753;245;1365;-44
2021/06/24 05:02:32;;;;;;;;;;;20.60;59.60;;;;;;485683;245;1159;-44
2021/06/24 05:04:33;;;;;;;;;;;20.60;59.60;;;;;;485949;245;1091;-44
2021/06/24 05:06:35;;;;;;;;;;;20.60;59.70;;;;;;485837;245;1137;-44
2021/06/24 05:08:36;;;;;;;;;;;20.60;59.70;;;;;;485846;245;2183;-44
2021/06/24 05:10:37;;;;;;;;;;;20.60;59.60;;;;;;485464;245;1241;-44
2021/06/24 05:12:38;;;;;;;;;;;20.60;59.60;;;;;;485638;245;1086;-44
2021/06/24 05:14:40;;;;;;;;;;;20.60;59.60;;;;;;485499;245;1056;-44
2021/06/24 05:16:41;;;;;;;;;;;20.60;59.70;;;;;;485877;245;1232;-44
2021/06/24 05:18:42;;;;;;;;;;;20.60;59.70;;;;;;485711;245;1205;-44
2021/06/24 05:20:44;;;;;;;;;;;20.60;59.70;;;;;;485491;245;1142;-44
2021/06/24 05:22:45;;;;;;;;;;;20.60;59.60;;;;;;485415;245;1066;-44
2021/06/24 05:24:46;;;;;;;;;;;20.60;59.70;;;;;;485693;245;1070;-44
2021/06/24 05:26:48;;;;;;;;;;;20.60;59.80;;;;;;485520;245;1293;-44
2021/06/24 05:28:49;;;;;;;;;;;20.60;59.80;;;;;;485574;245;2151;-44
2021/06/24 05:30:50;;;;;;;;;;;20.60;59.80;;;;;;485434;245;1396;-44
2021/06/24 05:32:52;;;;;;;;;;;20.60;59.70;;;;;;485350;245;1158;-44
2021/06/24 05:34:54;;;;;;;;;;;20.60;59.70;;;;;;485501;245;1072;-44
2021/06/24 05:36:54;;;;;;;;;;;20.60;59.60;;;;;;485348;245;1943;-44
2021/06/24 05:38:56;;;;;;;;;;;20.60;59.60;;;;;;485813;245;1099;-44
2021/06/24 05:40:57;;;;;;;;;;;20.60;59.60;;;;;;485548;245;1310;-44
2021/06/24 05:42:58;;;;;;;;;;;20.60;59.70;;;;;;485373;245;1339;-44
2021/06/24 05:45:00;;;;;;;;;;;20.60;59.80;;;;;;485587;245;1132;-44
2021/06/24 05:47:01;;;;;;;;;;;20.60;59.70;;;;;;485491;245;1137;-44
2021/06/24 05:49:03;;;;;;;;;;;20.60;59.70;;;;;;485413;245;2151;-44
2021/06/24 05:51:04;;;;;;;;;;;20.60;59.80;;;;;;485260;245;1207;-44
2021/06/24 05:53:05;;;;;;;;;;;20.60;59.80;;;;;;485436;245;1175;-44
2021/06/24 05:55:07;;;;;;;;;;;20.60;59.70;;;;;;485367;245;1106;-44
2021/06/24 05:57:08;;;;;;;;;;;20.60;59.60;;;;;;485129;245;1293;-44
2021/06/24 05:59:09;;;;;;;;;;;20.60;59.70;;;;;;485231;245;1077;-44
2021/06/24 06:01:11;;;;;;;;;;;20.60;59.70;;;;;;485174;245;1657;-44
2021/06/24 06:03:12;;;;;;;;;;;20.70;59.70;;;;;;485309;245;1095;-44
2021/06/24 06:05:13;;;;;;;;;;;20.60;59.70;;;;;;485337;245;1089;-44
2021/06/24 06:07:15;;;;;;;;;;;20.60;59.70;;;;;;485274;245;1250;-44
2021/06/24 06:09:16;;;;;;;;;;;20.60;59.70;;;;;;485255;245;2195;-44
2021/06/24 06:11:18;;;;;;;;;;;20.60;59.80;;;;;;485227;245;1349;-44
2021/06/24 06:13:20;;;;;;;;;;;20.60;59.80;;;;;;485366;245;1262;-44
2021/06/24 06:15:21;;;;;;;;;;;20.60;59.80;;;;;;485274;245;1137;-44
2021/06/24 06:17:22;;;;;;;;;;;20.60;59.70;;;;;;485210;245;1212;-44
2021/06/24 06:19:24;;;;;;;;;;;20.60;59.70;;;;;;485423;245;1159;-44
2021/06/24 06:21:28;;;;;;;;;;;20.60;59.70;;;;;;485309;245;1319;-44
2021/06/24 06:23:26;;;;;;;;;;;20.60;59.80;;;;;;484884;245;2279;-44
2021/06/24 06:25:28;;;;;;;;;;;20.60;59.80;;;;;;485079;245;1159;-44
2021/06/24 06:27:29;;;;;;;;;;;20.60;59.80;;;;;;484998;245;1133;-44
2021/06/24 06:29:30;;;;;;;;;;;20.60;59.80;;;;;;485166;245;2215;-44
2021/06/24 06:31:32;;;;;;;;;;;20.60;59.80;;;;;;485159;245;1228;-44
2021/06/24 06:33:33;;;;;;;;;;;20.60;59.80;;;;;;485081;245;1098;-44
2021/06/24 06:35:35;;;;;;;;;;;20.60;59.80;;;;;;485091;245;1394;-44
2021/06/24 06:37:36;;;;;;;;;;;20.60;59.70;;;;;;485078;245;1247;-44
2021/06/24 06:39:37;;;;;;;;;;;20.60;59.70;;;;;;485258;245;1085;-44
2021/06/24 06:41:39;;;;;;;;;;;20.60;59.70;;;;;;485131;245;1231;-44
2021/06/24 06:43:40;;;;;;;;;;;20.60;59.70;;;;;;485161;245;1111;-44
2021/06/24 06:45:41;;;;;;;;;;;20.60;59.70;;;;;;485170;245;1336;-44
2021/06/24 06:47:43;;;;;;;;;;;20.60;59.70;;;;;;484984;245;1270;-44
2021/06/24 06:49:44;;;;;;;;;;;20.60;59.70;;;;;;485081;245;2140;-44
2021/06/24 06:51:45;;;;;;;;;;;20.60;59.80;;;;;;485097;245;1252;-44
2021/06/24 06:53:47;;;;;;;;;;;20.60;59.70;;;;;;485249;245;1067;-44
2021/06/24 06:55:48;;;;;;;;;;;20.60;59.80;;;;;;485023;245;1303;-44
2021/06/24 06:57:49;;;;;;;;;;;20.60;59.80;;;;;;485123;245;1211;-44
2021/06/24 06:59:50;;;;;;;;;;;20.60;59.70;;;;;;484889;245;1288;-43
2021/06/24 07:01:52;;;;;;;;;;;20.60;59.70;;;;;;484845;245;1267;-44
2021/06/24 07:03:53;;;;;;;;;;;20.60;59.70;;;;;;484876;245;1166;-44
2021/06/24 07:05:55;;;;;;;;;;;20.60;59.70;;;;;;484887;245;1118;-44
2021/06/24 07:07:56;;;;;;;;;;;20.60;59.70;;;;;;484952;245;1149;-44
2021/06/24 07:09:58;;;;;;;;;;;20.60;59.70;;;;;;485074;245;2190;-44
2021/06/24 07:11:59;;;;;;;;;;;20.60;59.70;;;;;;485023;245;1171;-44
2021/06/24 07:14:00;;;;;;;;;;;20.60;59.70;;;;;;484937;245;1077;-44
2021/06/24 07:16:01;;;;;;;;;;;20.60;59.70;;;;;;484794;245;1285;-44
2021/06/24 07:18:03;;;;;;;;;;;20.60;59.60;;;;;;484811;245;1207;-44
2021/06/24 07:20:04;;;;;;;;;;;20.60;59.70;;;;;;484897;245;1128;-44
2021/06/24 07:22:05;;;;;;;;;;;20.60;59.70;;;;;;485042;245;1250;-44
2021/06/24 07:24:07;;;;;;;;;;;20.60;59.70;;;;;;485095;245;1212;-44
2021/06/24 07:26:08;;;;;;;;;;;20.60;59.70;;;;;;484981;245;1314;-44
2021/06/24 07:28:09;;;;;;;;;;;20.60;59.70;;;;;;484749;245;1169;-44
2021/06/24 07:30:11;;;;;;;;;;;20.60;59.70;;;;;;484486;245;2140;-44
2021/06/24 07:32:12;;;;;;;;;;;20.60;59.70;;;;;;484448;245;1264;-44
2021/06/24 07:34:13;;;;;;;;;;;20.60;59.70;;;;;;484563;245;1364;-44
2021/06/24 07:36:15;;;;;;;;;;;20.60;59.70;;;;;;484689;245;1185;-44
2021/06/24 07:38:16;;;;;;;;;;;20.60;59.70;;;;;;484583;245;1339;-44
2021/06/24 07:40:17;;;;;;;;;;;20.60;59.70;;;;;;484715;245;1149;-44
2021/06/24 07:42:19;;;;;;;;;;;20.60;59.70;;;;;;485004;245;1258;-44
2021/06/24 07:44:20;;;;;;;;;;;20.60;59.70;;;;;;485195;245;992;-44
2021/06/24 07:46:23;;;;;;;;;;;20.60;59.70;;;;;;485135;245;1175;-44
2021/06/24 07:48:23;;;;;;;;;;;20.60;59.70;;;;;;485201;245;2313;-44
2021/06/24 07:50:24;;;;;;;;;;;20.60;59.70;;;;;;484910;245;2190;-44
2021/06/24 07:52:26;;;;;;;;;;;20.60;59.70;;;;;;485060;245;1287;-44
2021/06/24 07:54:27;;;;;;;;;;;20.60;59.70;;;;;;484884;245;1151;-44
2021/06/24 07:56:28;;;;;;;;;;;20.60;59.70;;;;;;484901;245;1169;-44
2021/06/24 07:58:30;;;;;;;;;;;20.60;59.70;;;;;;485202;245;1152;-44
2021/06/24 08:00:31;;;;;;;;;;;20.60;59.70;;;;;;484948;245;1128;-44
2021/06/24 08:02:32;;;;;;;;;;;20.60;59.60;;;;;;485552;245;1268;-44
2021/06/24 08:04:34;;;;;;;;;;;20.60;59.70;;;;;;484878;245;1084;-44
2021/06/24 08:06:35;;;;;;;;;;;20.60;59.70;;;;;;484833;245;1248;-44
2021/06/24 08:08:36;;;;;;;;;;;20.60;59.70;;;;;;484970;245;1109;-44
2021/06/24 08:10:38;;;;;;;;;;;20.60;59.70;;;;;;484234;245;2199;-44
2021/06/24 08:12:40;;;;;;;;;;;20.60;59.70;;;;;;484464;245;1415;-44
2021/06/24 08:14:41;;;;;;;;;;;20.60;59.70;;;;;;485605;245;2255;-44
2021/06/24 08:16:42;;;;;;;;;;;20.60;59.70;;;;;;485110;245;1250;-44
2021/06/24 08:18:44;;;;;;;;;;;20.60;59.70;;;;;;485545;245;1353;-44
2021/06/24 08:20:45;;;;;;;;;;;20.60;59.70;;;;;;485550;245;963;-44
2021/06/24 08:22:46;;;;;;;;;;;20.60;59.70;;;;;;484653;245;1083;-44
2021/06/24 08:24:48;;;;;;;;;;;20.60;59.70;;;;;;484681;245;1136;-44
2021/06/24 08:26:49;;;;;;;;;;;20.60;59.70;;;;;;484622;245;1298;-44
2021/06/24 08:28:50;;;;;;;;;;;20.60;59.70;;;;;;484772;245;1314;-44
2021/06/24 08:30:53;;;;;;;;;;;20.60;59.70;;;;;;484702;245;2183;-44
2021/06/24 08:32:53;;;;;;;;;;;20.60;59.60;;;;;;484043;245;1420;-44
2021/06/24 08:34:54;;;;;;;;;;;20.60;59.60;;;;;;484386;245;1211;-44
2021/06/24 08:36:56;;;;;;;;;;;20.60;59.70;;;;;;484289;245;1246;-44
2021/06/24 08:38:57;;;;;;;;;;;20.60;59.70;;;;;;484586;245;1097;-44
2021/06/24 08:40:59;;;;;;;;;;;20.70;59.70;;;;;;484505;245;1209;-44
2021/06/24 08:43:00;;;;;;;;;;;20.70;59.60;;;;;;484613;245;1269;-44
2021/06/24 08:45:02;;;;;;;;;;;20.60;59.60;;;;;;484898;245;1210;-44
2021/06/24 08:47:02;;;;;;;;;;;20.60;59.60;;;;;;484976;245;2322;-44
2021/06/24 08:49:04;;;;;;;;;;;20.70;59.60;;;;;;485645;245;875;-44
2021/06/24 08:51:05;;;;;;;;;;;20.60;59.60;;;;;;485629;245;2194;-44
2021/06/24 08:53:06;;;;;;;;;;;20.60;59.70;;;;;;485672;245;1108;-44
2021/06/24 08:55:08;;;;;;;;;;;20.60;59.60;;;;;;485117;245;1107;-44
2021/06/24 08:57:11;;;;;;;;;;;20.60;59.60;;;;;;484997;245;1140;-44
2021/06/24 08:59:10;;;;;;;;;;;20.60;59.70;;;;;;484840;245;1166;-44
2021/06/24 09:01:12;;;;;;;;;;;20.60;59.60;;;;;;484601;242;1318;-44
2021/06/24 09:03:13;;;;;;;;;;;20.60;59.60;;;;;;484641;245;1153;-44
2021/06/24 09:05:14;;;;;;;;;;;20.60;59.70;;;;;;484655;245;1320;-44
2021/06/24 09:07:20;;;;;;;;;;;20.60;59.60;;;;;;484852;245;1228;-44
2021/06/24 09:09:18;;;;;;;;;;;20.60;59.60;;;;;;485506;245;2146;-44
2021/06/24 09:11:19;;;;;;;;;;;20.70;59.60;;;;;;485511;241;2207;-44
2021/06/24 09:13:20;;;;;;;;;;;20.70;59.60;;;;;;484899;245;1297;-44
2021/06/24 09:15:22;;;;;;;;;;;20.70;59.60;;;;;;484776;245;1241;-44
2021/06/24 09:17:23;;;;;;;;;;;20.60;59.60;;;;;;485238;245;1248;-44
2021/06/24 09:19:24;;;;;;;;;;;20.60;59.70;;;;;;485480;245;1403;-44
2021/06/24 09:21:26;;;;;;;;;;;20.60;59.70;;;;;;484895;245;1346;-44
2021/06/24 09:23:27;;;;;;;;;;;20.70;59.70;;;;;;485628;245;1236;-44
2021/06/24 09:25:30;;;;;;;;;;;20.60;59.60;;;;;;484862;245;1118;-43
2021/06/24 09:27:36;;;;;;;;;;;20.60;59.70;;;;;;485070;245;1232;-44
2021/06/24 09:29:33;;;;;;;;;;;20.60;59.70;;;;;;484485;245;2136;-44
2021/06/24 09:31:37;;;;;;;;;;;20.60;59.60;;;;;;484756;245;2181;-44
2021/06/24 09:33:36;;;;;;;;;;;20.60;59.70;;;;;;484594;245;1510;-44
2021/06/24 09:35:37;;;;;;;;;;;20.60;59.70;;;;;;484713;245;1141;-44
2021/06/24 09:37:39;;;;;;;;;;;20.60;59.70;;;;;;484843;245;1243;-44
2021/06/24 09:39:47;;;;;;;;;;;20.60;59.70;;;;;;485188;245;987;-44
2021/06/24 09:41:41;;;;;;;;;;;20.60;59.70;;;;;;484156;245;2113;-44
2021/06/24 09:43:45;;;;;;;;;;;20.60;59.70;;;;;;485254;245;1097;-44
2021/06/24 09:45:44;;;;;;;;;;;20.60;59.70;;;;;;485185;245;2168;-44
2021/06/24 09:47:45;;;;;;;;;;;20.60;59.70;;;;;;485263;245;1345;-44
2021/06/24 09:49:47;;;;;;;;;;;20.60;59.70;;;;;;485038;245;1101;-44
2021/06/24 09:51:50;;;;;;;;;;;20.60;59.70;;;;;;484895;245;2128;-44
2021/06/24 09:53:50;;;;;;;;;;;20.60;59.70;;;;;;484717;245;2358;-44
2021/06/24 09:55:52;;;;;;;;;;;20.60;59.70;;;;;;484694;245;1102;-44
2021/06/24 09:57:52;;;;;;;;;;;20.70;59.70;;;;;;484566;245;1332;-44
2021/06/24 09:59:54;;;;;;;;;;;20.70;59.70;;;;;;484726;245;1183;-44
2021/06/24 10:01:55;;;;;;;;;;;20.70;59.70;;;;;;484624;242;1397;-44
2021/06/24 10:03:56;;;;;;;;;;;20.60;59.70;;;;;;484727;245;1152;-44
2021/06/24 10:05:58;;;;;;;;;;;20.60;59.60;;;;;;484738;245;1369;-44
2021/06/24 10:07:59;;;;;;;;;;;20.70;59.60;;;;;;484854;245;1196;-44
2021/06/24 10:10:00;;;;;;;;;;;20.70;59.70;;;;;;484924;245;1128;-44
2021/06/24 10:12:02;;;;;;;;;;;20.60;59.70;;;;;;484748;245;2191;-44
2021/06/24 10:14:05;;;;;;;;;;;20.60;59.60;;;;;;484881;245;1188;-44
2021/06/24 10:16:04;;;;;;;;;;;20.60;59.60;;;;;;484618;245;2279;-44
2021/06/24 10:18:05;;;;;;;;;;;20.60;59.70;;;;;;484643;245;1119;-44
2021/06/24 10:20:07;;;;;;;;;;;20.60;59.60;;;;;;484463;245;1130;-44
2021/06/24 10:22:08;;;;;;;;;;;20.70;59.60;;;;;;484686;245;1162;-44
2021/06/24 10:24:09;;;;;;;;;;;20.70;59.50;;;;;;485161;245;1209;-44
2021/06/24 10:26:11;;;;;;;;;;;20.60;59.60;;;;;;485171;245;1097;-44
2021/06/24 10:28:13;;;;;;;;;;;20.70;59.70;;;;;;485588;245;1139;-44
2021/06/24 10:30:14;;;;;;;;;;;20.70;59.60;;;;;;485282;245;1129;-44
2021/06/24 10:32:15;;;;;;;;;;;20.60;59.60;;;;;;485643;245;2183;-44
2021/06/24 10:34:17;;;;;;;;;;;20.70;59.60;;;;;;485543;245;928;-44
2021/06/24 10:36:18;;;;;;;;;;;20.70;59.50;;;;;;485301;245;1158;-44
2021/06/24 10:38:19;;;;;;;;;;;20.70;59.60;;;;;;485411;245;840;-44
2021/06/24 10:40:20;;;;;;;;;;;20.60;59.60;;;;;;485577;245;922;-44
2021/06/24 10:42:22;;;;;;;;;;;20.60;59.70;;;;;;485126;245;1445;-44
2021/06/24 10:44:23;;;;;;;;;;;20.60;59.60;;;;;;485094;245;1175;-44
2021/06/24 10:46:25;;;;;;;;;;;20.60;59.60;;;;;;485496;245;1212;-44
2021/06/24 10:48:26;;;;;;;;;;;20.60;59.70;;;;;;485073;245;859;-44
2021/06/24 10:50:29;;;;;;;;;;;20.60;59.70;;;;;;484766;245;2191;-44
2021/06/24 10:52:29;;;;;;;;;;;20.60;59.60;;;;;;484821;245;1824;-44
2021/06/24 10:54:30;;;;;;;;;;;20.60;59.60;;;;;;485570;245;968;-44
2021/06/24 10:56:32;;;;;;;;;;;20.60;59.60;;;;;;485600;245;1183;-43
2021/06/24 10:58:33;;;;;;;;;;;20.60;59.70;;;;;;485615;245;888;-44
2021/06/24 11:00:34;;;;;;;;;;;20.60;59.60;;;;;;485118;245;1188;-44
2021/06/24 11:02:36;;;;;;;;;;;20.60;59.60;;;;;;485548;245;891;-44
2021/06/24 11:04:38;;;;;;;;;;;20.60;59.60;;;;;;485520;245;894;-44
2021/06/24 11:06:39;;;;;;;;;;;20.60;59.60;;;;;;485014;245;1410;-44
2021/06/24 11:08:40;;;;;;;;;;;20.60;59.60;;;;;;485063;245;918;-44
2021/06/24 11:10:42;;;;;;;;;;;20.60;59.70;;;;;;484864;245;2191;-44
2021/06/24 11:12:43;;;;;;;;;;;20.60;59.80;;;;;;484756;245;1239;-44
2021/06/24 11:14:44;;;;;;;;;;;20.60;59.80;;;;;;484683;245;1201;-44
2021/06/24 11:16:46;;;;;;;;;;;20.60;59.70;;;;;;484865;245;1256;-44
2021/06/24 11:18:47;;;;;;;;;;;20.60;59.60;;;;;;485480;245;1343;-44
2021/06/24 11:20:48;;;;;;;;;;;20.70;59.60;;;;;;485447;245;1220;-44
2021/06/24 11:22:50;;;;;;;;;;;20.70;59.50;;;;;;485025;245;1251;-44
2021/06/24 11:24:51;;;;;;;;;;;20.70;59.50;;;;;;485055;245;883;-44
2021/06/24 11:26:53;;;;;;;;;;;20.70;59.60;;;;;;485413;245;1322;-44
2021/06/24 11:28:55;;;;;;;;;;;20.70;59.60;;;;;;485083;245;2052;-44
2021/06/24 11:30:55;;;;;;;;;;;20.70;59.60;;;;;;484937;245;2446;-44
2021/06/24 11:32:56;;;;;;;;;;;20.70;59.60;;;;;;485082;245;1021;-44
2021/06/24 11:34:58;;;;;;;;;;;20.60;59.60;;;;;;485096;245;875;-44
2021/06/24 11:36:59;;;;;;;;;;;20.70;59.60;;;;;;484641;245;2174;-44
2021/06/24 11:39:00;;;;;;;;;;;20.70;59.60;;;;;;485376;245;1377;-44
2021/06/24 11:41:03;;;;;;;;;;;20.70;59.60;;;;;;485516;245;843;-44
2021/06/24 11:43:03;;;;;;;;;;;20.60;59.60;;;;;;485506;245;2120;-44
2021/06/24 11:45:04;;;;;;;;;;;20.60;59.60;;;;;;485043;245;1032;-44
2021/06/24 11:47:08;;;;;;;;;;;20.60;59.60;;;;;;485185;245;1142;-44
2021/06/24 11:49:15;;;;;;;;;;;20.60;59.70;;;;;;485076;245;2108;-44
2021/06/24 12:00:31;;;;;;;;;;;20.60;59.70;;;;;;485263;245;1075;-44
2021/06/24 12:04:57;;;;;;;;;;;20.60;59.60;;;;;;482776;243;2084;-44
2021/06/24 12:06:59;;;;;;;;;;;20.60;59.60;;;;;;483449;244;1420;-44
2021/06/24 12:08:59;;;;;;;;;;;20.60;59.70;;;;;;485515;245;2124;-44